N577JC SLTR-SLET
Flight info
| Callsign | N577JC |
|---|---|
| Flight time | 0h 31m |
| Altitude | 25000 |
| Route | IREDO1 IREDO A301 PAKES MULDA |
| Aircraft | C750/M-V/N |
Departure
| Time | 2026-04-27 02:30 |
|---|---|
| Airport | Teniente Av. Jorge Henrich Arauz Airport (SLTR) |
Arrival
| Time | 2026-04-27 03:02 |
|---|---|
| Airport | El Trompillo Airport (SLET) |
| Time | Latitude | Longitude | Altitude | Speed | Heading |
|---|---|---|---|---|---|
| 2026-04-27 02:18 | -14.82127 | -64.91945 | 513 ft | 0 kts | 224° |
| 2026-04-27 02:23 | -14.82128 | -64.91946 | 513 ft | 1 kts | 223° |
| 2026-04-27 02:23 | -14.82130 | -64.91947 | 513 ft | 0 kts | 223° |
| 2026-04-27 02:24 | -14.82135 | -64.91950 | 513 ft | 2 kts | 196° |
| 2026-04-27 02:24 | -14.82145 | -64.91949 | 513 ft | 4 kts | 156° |
| 2026-04-27 02:24 | -14.82153 | -64.91929 | 513 ft | 0 kts | 99° |
| 2026-04-27 02:25 | -14.82156 | -64.91915 | 513 ft | 4 kts | 99° |
| 2026-04-27 02:25 | -14.82167 | -64.91875 | 513 ft | 8 kts | 115° |
| 2026-04-27 02:26 | -14.82191 | -64.91822 | 513 ft | 8 kts | 115° |
| 2026-04-27 02:26 | -14.82203 | -64.91775 | 513 ft | 7 kts | 84° |
| 2026-04-27 02:26 | -14.82182 | -64.91715 | 513 ft | 11 kts | 80° |
| 2026-04-27 02:26 | -14.82173 | -64.91624 | 513 ft | 11 kts | 84° |
| 2026-04-27 02:27 | -14.82171 | -64.91603 | 513 ft | 0 kts | 84° |
| 2026-04-27 02:27 | -14.82171 | -64.91602 | 513 ft | 0 kts | 84° |
| 2026-04-27 02:28 | -14.82171 | -64.91597 | 513 ft | 5 kts | 84° |
| 2026-04-27 02:28 | -14.82204 | -64.91469 | 513 ft | 29 kts | 134° |
| 2026-04-27 02:28 | -14.82402 | -64.91258 | 513 ft | 92 kts | 134° |
| 2026-04-27 02:29 | -14.82637 | -64.91037 | 513 ft | 8 kts | 138° |
| 2026-04-27 02:29 | -14.82606 | -64.91029 | 513 ft | 9 kts | 291° |
| 2026-04-27 02:29 | -14.82570 | -64.91082 | 513 ft | 12 kts | 317° |
| 2026-04-27 02:29 | -14.82451 | -64.91203 | 513 ft | 53 kts | 314° |
| 2026-04-27 02:30 | -14.81912 | -64.91760 | 517 ft | 169 kts | 315° |
| 2026-04-27 02:30 | -14.80856 | -64.92865 | 1221 ft | 261 kts | 314° |
| 2026-04-27 02:30 | -14.79337 | -64.94507 | 2336 ft | 346 kts | 313° |
| 2026-04-27 02:30 | -14.77672 | -64.96429 | 4237 ft | 353 kts | 311° |
| 2026-04-27 02:31 | -14.76562 | -64.98500 | 5731 ft | 314 kts | 289° |
| 2026-04-27 02:31 | -14.76794 | -65.00607 | 6995 ft | 294 kts | 246° |
| 2026-04-27 02:31 | -14.78171 | -65.02247 | 7819 ft | 328 kts | 224° |
| 2026-04-27 02:31 | -14.80367 | -65.03569 | 7784 ft | 389 kts | 201° |
| 2026-04-27 02:32 | -14.83022 | -65.03786 | 9415 ft | 381 kts | 174° |
| 2026-04-27 02:32 | -14.85519 | -65.02766 | 9942 ft | 404 kts | 148° |
| 2026-04-27 02:32 | -14.87737 | -65.00883 | 10528 ft | 420 kts | 135° |
| 2026-04-27 02:32 | -14.89782 | -64.98770 | 11786 ft | 396 kts | 134° |
| 2026-04-27 02:33 | -14.91764 | -64.96761 | 14281 ft | 411 kts | 135° |
| 2026-04-27 02:33 | -14.93865 | -64.94544 | 15813 ft | 450 kts | 133° |
| 2026-04-27 02:33 | -14.96065 | -64.92121 | 17109 ft | 477 kts | 131° |
| 2026-04-27 02:33 | -14.98333 | -64.89567 | 18711 ft | 476 kts | 132° |
| 2026-04-27 02:34 | -15.00587 | -64.87085 | 19558 ft | 474 kts | 132° |
| 2026-04-27 02:34 | -15.02939 | -64.84638 | 19895 ft | 479 kts | 135° |
| 2026-04-27 02:34 | -15.05367 | -64.82356 | 20696 ft | 458 kts | 137° |
| 2026-04-27 02:34 | -15.07738 | -64.80299 | 21441 ft | 443 kts | 140° |
| 2026-04-27 02:35 | -15.10164 | -64.78338 | 22198 ft | 444 kts | 142° |
| 2026-04-27 02:35 | -15.11995 | -64.76904 | 22754 ft | 459 kts | 142° |
| 2026-04-27 02:35 | -15.14597 | -64.74896 | 23516 ft | 470 kts | 142° |
| 2026-04-27 02:35 | -15.17253 | -64.72862 | 24202 ft | 479 kts | 143° |
| 2026-04-27 02:36 | -15.19977 | -64.70783 | 24299 ft | 490 kts | 143° |
| 2026-04-27 02:36 | -15.22733 | -64.68684 | 24300 ft | 492 kts | 143° |
| 2026-04-27 02:36 | -15.25507 | -64.66570 | 24294 ft | 494 kts | 143° |
| 2026-04-27 02:36 | -15.28234 | -64.64481 | 24291 ft | 495 kts | 143° |
| 2026-04-27 02:37 | -15.31007 | -64.62355 | 24290 ft | 496 kts | 143° |
| 2026-04-27 02:37 | -15.33796 | -64.60217 | 24291 ft | 499 kts | 143° |
| 2026-04-27 02:37 | -15.36609 | -64.58072 | 24291 ft | 503 kts | 143° |
| 2026-04-27 02:37 | -15.39448 | -64.55913 | 24291 ft | 505 kts | 143° |
| 2026-04-27 02:38 | -15.42245 | -64.53785 | 24290 ft | 506 kts | 143° |
| 2026-04-27 02:38 | -15.44327 | -64.52276 | 24293 ft | 507 kts | 146° |
| 2026-04-27 02:38 | -15.46098 | -64.51128 | 24296 ft | 508 kts | 148° |
| 2026-04-27 02:38 | -15.49209 | -64.49302 | 24298 ft | 510 kts | 150° |
| 2026-04-27 02:39 | -15.52294 | -64.47496 | 24294 ft | 512 kts | 150° |
| 2026-04-27 02:39 | -15.55404 | -64.45653 | 24291 ft | 513 kts | 150° |
| 2026-04-27 02:39 | -15.58491 | -64.43807 | 24290 ft | 514 kts | 149° |
| 2026-04-27 02:39 | -15.61559 | -64.41959 | 24290 ft | 514 kts | 149° |
| 2026-04-27 02:40 | -15.64663 | -64.40079 | 24290 ft | 515 kts | 149° |
| 2026-04-27 02:40 | -15.67762 | -64.38183 | 24290 ft | 515 kts | 149° |
| 2026-04-27 02:40 | -15.70847 | -64.36279 | 24290 ft | 515 kts | 149° |
| 2026-04-27 02:40 | -15.73898 | -64.34387 | 24290 ft | 516 kts | 149° |
| 2026-04-27 02:41 | -15.76984 | -64.32465 | 24289 ft | 516 kts | 149° |
| 2026-04-27 02:41 | -15.80068 | -64.30539 | 24291 ft | 516 kts | 148° |
| 2026-04-27 02:41 | -15.83124 | -64.28626 | 24290 ft | 516 kts | 148° |
| 2026-04-27 02:41 | -15.86217 | -64.26686 | 24290 ft | 516 kts | 148° |
| 2026-04-27 02:42 | -15.89286 | -64.24754 | 24289 ft | 516 kts | 148° |
| 2026-04-27 02:42 | -15.92328 | -64.22837 | 24291 ft | 516 kts | 148° |
| 2026-04-27 02:42 | -15.95412 | -64.20893 | 24290 ft | 516 kts | 148° |
| 2026-04-27 02:42 | -15.98484 | -64.18955 | 24290 ft | 516 kts | 148° |
| 2026-04-27 02:43 | -16.01530 | -64.17033 | 24290 ft | 516 kts | 148° |
| 2026-04-27 02:43 | -16.04610 | -64.15089 | 24290 ft | 516 kts | 148° |
| 2026-04-27 02:43 | -16.07679 | -64.13150 | 24290 ft | 516 kts | 148° |
| 2026-04-27 02:43 | -16.10752 | -64.11204 | 24290 ft | 516 kts | 148° |
| 2026-04-27 02:44 | -16.13821 | -64.09256 | 24290 ft | 516 kts | 148° |
| 2026-04-27 02:44 | -16.16896 | -64.07302 | 24290 ft | 516 kts | 148° |
| 2026-04-27 02:44 | -16.19933 | -64.05376 | 24291 ft | 516 kts | 148° |
| 2026-04-27 02:44 | -16.23014 | -64.03424 | 24291 ft | 516 kts | 148° |
| 2026-04-27 02:45 | -16.26079 | -64.01480 | 24290 ft | 516 kts | 148° |
| 2026-04-27 02:45 | -16.29131 | -63.99545 | 24291 ft | 516 kts | 148° |
| 2026-04-27 02:45 | -16.32211 | -63.97592 | 24290 ft | 516 kts | 148° |
| 2026-04-27 02:45 | -16.35284 | -63.95644 | 24290 ft | 516 kts | 148° |
| 2026-04-27 02:46 | -16.38326 | -63.93719 | 24291 ft | 516 kts | 148° |
| 2026-04-27 02:46 | -16.41404 | -63.91770 | 24291 ft | 516 kts | 148° |
| 2026-04-27 02:46 | -16.44461 | -63.89831 | 24290 ft | 516 kts | 148° |
| 2026-04-27 02:46 | -16.47534 | -63.87889 | 24290 ft | 516 kts | 148° |
| 2026-04-27 02:47 | -16.50616 | -63.85953 | 24290 ft | 516 kts | 149° |
| 2026-04-27 02:47 | -16.53706 | -63.84018 | 24290 ft | 516 kts | 149° |
| 2026-04-27 02:47 | -16.56788 | -63.82092 | 24290 ft | 516 kts | 149° |
| 2026-04-27 02:47 | -16.59842 | -63.80184 | 24290 ft | 516 kts | 148° |
| 2026-04-27 02:48 | -16.62931 | -63.78256 | 24291 ft | 516 kts | 148° |
| 2026-04-27 02:48 | -16.66023 | -63.76326 | 24290 ft | 516 kts | 149° |
| 2026-04-27 02:48 | -16.69080 | -63.74419 | 24290 ft | 516 kts | 149° |
| 2026-04-27 02:48 | -16.72172 | -63.72490 | 24290 ft | 516 kts | 149° |
| 2026-04-27 02:49 | -16.75257 | -63.70567 | 24290 ft | 516 kts | 148° |
| 2026-04-27 02:49 | -16.78314 | -63.68663 | 24289 ft | 516 kts | 148° |
| 2026-04-27 02:49 | -16.81399 | -63.66739 | 24291 ft | 516 kts | 148° |
| 2026-04-27 02:49 | -16.84496 | -63.64803 | 24291 ft | 516 kts | 148° |
| 2026-04-27 02:50 | -16.87508 | -63.62916 | 24291 ft | 516 kts | 148° |
| 2026-04-27 02:50 | -16.90617 | -63.60970 | 24290 ft | 516 kts | 148° |
| 2026-04-27 02:50 | -16.93702 | -63.59037 | 24290 ft | 516 kts | 148° |
| 2026-04-27 02:50 | -16.96793 | -63.57098 | 24291 ft | 516 kts | 148° |
| 2026-04-27 02:51 | -16.99861 | -63.55174 | 24291 ft | 516 kts | 149° |
| 2026-04-27 02:51 | -17.02950 | -63.53231 | 24290 ft | 516 kts | 149° |
| 2026-04-27 02:51 | -17.06013 | -63.51310 | 24290 ft | 516 kts | 149° |
| 2026-04-27 02:51 | -17.09101 | -63.49374 | 24290 ft | 516 kts | 149° |
| 2026-04-27 02:52 | -17.12151 | -63.47465 | 24291 ft | 516 kts | 149° |
| 2026-04-27 02:52 | -17.15251 | -63.45518 | 24290 ft | 516 kts | 149° |
| 2026-04-27 02:52 | -17.18268 | -63.43626 | 24202 ft | 509 kts | 149° |
| 2026-04-27 02:52 | -17.21285 | -63.41735 | 23929 ft | 491 kts | 148° |
| 2026-04-27 02:53 | -17.24169 | -63.39923 | 23671 ft | 473 kts | 148° |
| 2026-04-27 02:53 | -17.26941 | -63.38179 | 23418 ft | 458 kts | 148° |
| 2026-04-27 02:53 | -17.29616 | -63.36496 | 23165 ft | 448 kts | 149° |
| 2026-04-27 02:53 | -17.32273 | -63.34822 | 22911 ft | 441 kts | 148° |
| 2026-04-27 02:54 | -17.34891 | -63.33175 | 22658 ft | 437 kts | 148° |
| 2026-04-27 02:54 | -17.37468 | -63.31553 | 22408 ft | 434 kts | 148° |
| 2026-04-27 02:54 | -17.40055 | -63.29898 | 22155 ft | 432 kts | 148° |
| 2026-04-27 02:54 | -17.42607 | -63.28239 | 21905 ft | 431 kts | 147° |
| 2026-04-27 02:55 | -17.45114 | -63.26591 | 21657 ft | 429 kts | 147° |
| 2026-04-27 02:55 | -17.47636 | -63.24917 | 21416 ft | 427 kts | 147° |
| 2026-04-27 02:55 | -17.50337 | -63.23538 | 20479 ft | 436 kts | 161° |
| 2026-04-27 02:55 | -17.53342 | -63.23036 | 19152 ft | 448 kts | 180° |
| 2026-04-27 02:56 | -17.56499 | -63.23464 | 16983 ft | 466 kts | 192° |
| 2026-04-27 02:56 | -17.59780 | -63.24147 | 15978 ft | 470 kts | 193° |
| 2026-04-27 02:56 | -17.62892 | -63.24915 | 14336 ft | 474 kts | 198° |
| 2026-04-27 02:56 | -17.65887 | -63.26382 | 12704 ft | 470 kts | 213° |
| 2026-04-27 02:57 | -17.68676 | -63.28340 | 10692 ft | 486 kts | 212° |
| 2026-04-27 02:57 | -17.71722 | -63.29383 | 11149 ft | 450 kts | 184° |
| 2026-04-27 02:57 | -17.74435 | -63.28426 | 11067 ft | 411 kts | 125° |
| 2026-04-27 02:57 | -17.75095 | -63.25696 | 10110 ft | 382 kts | 88° |
| 2026-04-27 02:58 | -17.74443 | -63.22939 | 5484 ft | 433 kts | 68° |
| 2026-04-27 02:58 | -17.74320 | -63.20051 | 5511 ft | 360 kts | 97° |
| 2026-04-27 02:58 | -17.75503 | -63.17923 | 3047 ft | 350 kts | 154° |
| 2026-04-27 02:58 | -17.77897 | -63.18062 | 2091 ft | 325 kts | 193° |
| 2026-04-27 02:59 | -17.80015 | -63.18436 | 1789 ft | 290 kts | 188° |
| 2026-04-27 02:59 | -17.81921 | -63.18698 | 1801 ft | 262 kts | 186° |
| 2026-04-27 02:59 | -17.83632 | -63.18696 | 2040 ft | 230 kts | 173° |
| 2026-04-27 02:59 | -17.85129 | -63.18288 | 2086 ft | 217 kts | 158° |
| 2026-04-27 03:00 | -17.86287 | -63.17399 | 2293 ft | 198 kts | 128° |
| 2026-04-27 03:00 | -17.86802 | -63.16117 | 2399 ft | 185 kts | 91° |
| 2026-04-27 03:00 | -17.86487 | -63.14876 | 2302 ft | 178 kts | 48° |
| 2026-04-27 03:00 | -17.85491 | -63.14380 | 2353 ft | 156 kts | 352° |
| 2026-04-27 03:01 | -17.84399 | -63.14736 | 2064 ft | 171 kts | 330° |
| 2026-04-27 03:01 | -17.83357 | -63.15446 | 1753 ft | 184 kts | 325° |
| 2026-04-27 03:01 | -17.82305 | -63.16258 | 1437 ft | 191 kts | 323° |
| 2026-04-27 03:01 | -17.81282 | -63.17044 | 1375 ft | 150 kts | 324° |
| 2026-04-27 03:02 | -17.80902 | -63.17329 | 1375 ft | 12 kts | 324° |
| 2026-04-27 03:02 | -17.80815 | -63.17396 | 1375 ft | 19 kts | 324° |
| 2026-04-27 03:02 | -17.80683 | -63.17495 | 1375 ft | 27 kts | 326° |
| 2026-04-27 03:02 | -17.80507 | -63.17626 | 1375 ft | 35 kts | 324° |
| 2026-04-27 03:03 | -17.80337 | -63.17683 | 1375 ft | 25 kts | 18° |
| 2026-04-27 03:03 | -17.80208 | -63.17629 | 1375 ft | 0 kts | 34° |
| 2026-04-27 03:07 | -14.82126 | -64.91943 | 509 ft | 0 kts | 224° |